createdAt,value
2023-05-06T00:02:17.683Z,6.27
2023-05-06T00:04:44.666Z,6.30
2023-05-06T00:07:12.023Z,6.07
2023-05-06T00:09:38.915Z,7.33
2023-05-06T00:12:05.787Z,5.53
2023-05-06T00:14:32.693Z,5.70
2023-05-06T00:16:59.532Z,6.00
2023-05-06T00:19:26.536Z,6.07
2023-05-06T00:21:53.376Z,6.03
2023-05-06T00:24:20.183Z,6.23
2023-05-06T00:26:47.010Z,6.73
2023-05-06T00:29:13.767Z,7.03
2023-05-06T00:31:41.192Z,6.90
2023-05-06T00:34:08.379Z,7.10
2023-05-06T00:36:35.176Z,7.50
2023-05-06T00:39:02.527Z,7.80
2023-05-06T00:41:33.085Z,7.17
2023-05-06T00:43:59.949Z,8.37
2023-05-06T00:46:27.448Z,7.73
2023-05-06T00:48:54.925Z,8.07
2023-05-06T00:51:22.453Z,8.10
2023-05-06T00:53:49.404Z,8.00
2023-05-06T00:56:20.488Z,8.17
2023-05-06T00:58:48.144Z,7.73
2023-05-06T01:01:15.056Z,7.73
2023-05-06T01:03:42.240Z,8.00
2023-05-06T01:06:14.358Z,7.67
2023-05-06T01:08:53.240Z,7.17
2023-05-06T01:11:24.819Z,7.53
2023-05-06T01:14:27.462Z,8.07
2023-05-06T01:16:55.473Z,7.43
2023-05-06T01:19:31.176Z,7.70
2023-05-06T01:22:00.070Z,7.40
2023-05-06T01:24:45.567Z,6.87
2023-05-06T01:27:13.424Z,6.70
2023-05-06T01:29:42.523Z,7.63
2023-05-06T01:32:35.638Z,6.43
2023-05-06T01:35:12.154Z,6.77
2023-05-06T01:37:43.611Z,6.67
2023-05-06T01:40:11.013Z,7.10
2023-05-06T01:42:40.301Z,5.87
2023-05-06T01:45:08.379Z,6.30
2023-05-06T01:47:36.886Z,5.97
2023-05-06T01:50:04.860Z,6.70
2023-05-06T01:52:33.114Z,5.73
2023-05-06T01:55:00.038Z,5.93
2023-05-06T01:57:27.670Z,7.83
2023-05-06T01:59:54.602Z,7.30
2023-05-06T02:02:21.489Z,6.60
2023-05-06T02:04:48.553Z,6.57
2023-05-06T02:07:16.003Z,5.97
2023-05-06T02:09:44.197Z,6.40
2023-05-06T02:12:11.616Z,6.17
2023-05-06T02:14:38.430Z,5.70
2023-05-06T02:17:06.194Z,5.83
2023-05-06T02:19:33.214Z,6.33
2023-05-06T02:22:00.164Z,6.57
2023-05-06T02:24:27.098Z,7.23
2023-05-06T02:26:53.961Z,6.60
2023-05-06T02:29:21.003Z,6.50
2023-05-06T02:31:47.892Z,6.33
2023-05-06T02:34:16.551Z,5.47
2023-05-06T02:36:43.573Z,5.67
2023-05-06T02:39:10.806Z,5.87
2023-05-06T02:41:37.649Z,5.30
2023-05-06T02:44:04.642Z,5.30
2023-05-06T02:46:31.464Z,5.83
2023-05-06T02:48:58.448Z,5.67
2023-05-06T02:51:25.213Z,5.97
2023-05-06T02:53:52.199Z,6.60
2023-05-06T02:56:19.085Z,6.80
2023-05-06T02:58:46.006Z,7.10
2023-05-06T03:01:12.958Z,6.83
2023-05-06T03:03:39.987Z,6.90
2023-05-06T03:06:06.792Z,7.67
2023-05-06T03:08:33.751Z,7.07
2023-05-06T03:11:01.336Z,6.60
2023-05-06T03:13:28.127Z,6.10
2023-05-06T03:15:55.280Z,6.00
2023-05-06T03:18:22.469Z,6.13
2023-05-06T03:20:50.574Z,6.13
2023-05-06T03:23:18.318Z,5.73
2023-05-06T03:25:46.005Z,5.37
2023-05-06T03:28:13.616Z,5.60
2023-05-06T03:30:42.254Z,6.20
2023-05-06T03:33:09.504Z,6.43
2023-05-06T03:35:36.423Z,6.00
2023-05-06T03:38:03.696Z,6.97
2023-05-06T03:40:43.975Z,6.60
2023-05-06T03:43:12.071Z,6.83
2023-05-06T03:45:39.026Z,6.87
2023-05-06T03:48:06.597Z,7.30
2023-05-06T03:50:36.571Z,7.47
2023-05-06T03:53:03.531Z,7.20
2023-05-06T03:55:32.665Z,7.07
2023-05-06T03:58:01.108Z,7.30
2023-05-06T04:00:28.054Z,7.30
2023-05-06T04:02:55.200Z,7.17
2023-05-06T04:05:28.941Z,6.50
2023-05-06T04:07:55.815Z,7.33
2023-05-06T04:10:23.196Z,6.60
2023-05-06T04:12:52.837Z,7.50
2023-05-06T04:15:25.530Z,7.17
2023-05-06T04:17:52.824Z,7.40
2023-05-06T04:20:20.757Z,7.23
2023-05-06T04:22:48.141Z,6.47
2023-05-06T04:25:16.427Z,6.97
2023-05-06T04:27:43.377Z,7.50
2023-05-06T04:30:10.652Z,7.40
2023-05-06T04:32:38.911Z,6.13
2023-05-06T04:35:07.794Z,6.20
2023-05-06T04:37:35.870Z,5.40
2023-05-06T04:40:09.533Z,6.07
2023-05-06T04:42:39.687Z,6.00
2023-05-06T04:45:12.439Z,4.93
2023-05-06T04:47:42.605Z,5.90
2023-05-06T04:50:10.282Z,5.00
2023-05-06T04:52:37.753Z,4.40
2023-05-06T04:55:05.753Z,5.00
2023-05-06T04:57:35.303Z,6.10
2023-05-06T05:00:03.827Z,5.07
2023-05-06T05:02:30.685Z,5.57
2023-05-06T05:04:57.837Z,5.50
2023-05-06T05:07:25.534Z,4.73
2023-05-06T05:09:52.472Z,5.03
2023-05-06T05:12:19.418Z,4.90
2023-05-06T05:14:49.262Z,5.03
2023-05-06T05:17:16.443Z,4.37
2023-05-06T05:19:44.553Z,5.40
2023-05-06T05:22:12.981Z,4.40
2023-05-06T05:24:39.895Z,5.17
2023-05-06T05:27:07.661Z,6.27
2023-05-06T05:29:35.372Z,5.90
2023-05-06T05:32:05.530Z,5.57
2023-05-06T05:34:32.862Z,10.63
2023-05-06T05:37:00.812Z,6.27
2023-05-06T05:39:28.825Z,5.47
2023-05-06T05:41:56.398Z,4.93
2023-05-06T05:44:23.619Z,5.07
2023-05-06T05:46:51.049Z,4.93
2023-05-06T05:49:19.999Z,4.70
2023-05-06T05:51:48.318Z,4.77
2023-05-06T05:54:17.609Z,6.27
2023-05-06T05:56:45.896Z,5.87
2023-05-06T05:59:13.759Z,5.20
2023-05-06T06:01:41.654Z,4.40
2023-05-06T06:04:09.720Z,5.00
2023-05-06T06:06:36.707Z,6.30
2023-05-06T06:09:04.505Z,3.80
2023-05-06T06:11:31.366Z,6.13
2023-05-06T06:13:58.828Z,6.03
2023-05-06T06:16:26.877Z,4.60
2023-05-06T06:18:54.265Z,4.80
2023-05-06T06:21:21.359Z,4.37
2023-05-06T06:23:48.298Z,4.10
2023-05-06T06:26:15.501Z,4.20
2023-05-06T06:28:44.939Z,4.53
2023-05-06T06:31:12.029Z,4.37
2023-05-06T06:33:38.869Z,4.13
2023-05-06T06:36:06.306Z,4.93
2023-05-06T06:38:33.100Z,4.87
2023-05-06T06:41:00.005Z,4.47
2023-05-06T06:43:26.996Z,6.80
2023-05-06T06:46:02.179Z,5.03
2023-05-06T06:48:29.162Z,4.93
2023-05-06T06:50:56.008Z,4.40
2023-05-06T06:53:23.400Z,4.27
2023-05-06T06:55:50.207Z,4.23
2023-05-06T06:58:17.068Z,4.43
2023-05-06T07:00:44.328Z,4.20
2023-05-06T07:03:11.414Z,4.63
2023-05-06T07:05:38.281Z,5.10
2023-05-06T07:08:05.162Z,4.23
2023-05-06T07:10:32.390Z,5.97
2023-05-06T07:12:59.261Z,6.50
2023-05-06T07:15:26.322Z,4.67
2023-05-06T07:17:53.255Z,5.57
2023-05-06T07:20:20.065Z,7.20
2023-05-06T07:22:47.057Z,6.17
2023-05-06T07:25:13.903Z,7.87
2023-05-06T07:27:40.842Z,6.30
2023-05-06T07:30:08.463Z,6.37
2023-05-06T07:32:35.414Z,7.97
2023-05-06T07:35:02.251Z,8.37
2023-05-06T07:37:29.161Z,7.80
2023-05-06T07:39:56.836Z,5.97
2023-05-06T07:42:23.955Z,5.43
2023-05-06T07:44:50.819Z,6.20
2023-05-06T07:47:26.024Z,6.73
2023-05-06T07:49:53.041Z,6.47
2023-05-06T07:52:19.804Z,5.50
2023-05-06T07:54:47.091Z,5.67
2023-05-06T07:57:14.092Z,6.23
2023-05-06T07:59:40.917Z,5.77
2023-05-06T08:02:07.793Z,4.40
2023-05-06T08:04:34.702Z,5.80
2023-05-06T08:07:01.687Z,7.80
2023-05-06T08:09:28.597Z,5.43
2023-05-06T08:11:55.473Z,5.23
2023-05-06T08:14:22.408Z,5.53
2023-05-06T08:16:49.337Z,4.93
2023-05-06T08:19:16.280Z,5.20
2023-05-06T08:21:43.069Z,5.07
2023-05-06T08:24:11.464Z,5.03
2023-05-06T08:26:38.258Z,4.63
2023-05-06T08:29:05.059Z,4.70
2023-05-06T08:31:31.953Z,4.87
2023-05-06T08:33:58.804Z,5.43
2023-05-06T08:36:25.748Z,5.23
2023-05-06T08:38:52.558Z,4.87
2023-05-06T08:41:21.578Z,5.17
2023-05-06T08:43:49.166Z,5.00
2023-05-06T08:46:16.635Z,4.43
2023-05-06T08:48:43.525Z,4.93
2023-05-06T08:51:11.830Z,5.00
2023-05-06T08:53:40.272Z,5.20
2023-05-06T08:56:08.909Z,5.40
2023-05-06T08:58:37.744Z,5.30
2023-05-06T09:01:04.813Z,5.30
2023-05-06T09:03:32.062Z,5.67
2023-05-06T09:05:59.093Z,5.50
2023-05-06T09:08:25.992Z,6.47
2023-05-06T09:10:52.910Z,6.27
2023-05-06T09:13:20.001Z,6.50
2023-05-06T09:15:48.046Z,7.33
2023-05-06T09:18:15.524Z,8.07
2023-05-06T09:20:43.315Z,7.13
2023-05-06T09:23:11.480Z,6.53
2023-05-06T09:25:38.859Z,7.67
2023-05-06T09:28:06.893Z,7.40
2023-05-06T09:30:33.837Z,7.37
2023-05-06T09:33:04.958Z,9.10
2023-05-06T09:35:42.271Z,8.00
2023-05-06T09:38:09.678Z,8.33
2023-05-06T09:40:36.658Z,8.43
2023-05-06T09:43:04.133Z,8.20
2023-05-06T09:45:31.041Z,8.57
2023-05-06T09:47:58.837Z,12.03
2023-05-06T09:50:26.659Z,15.13
2023-05-06T09:52:54.915Z,12.37
2023-05-06T09:55:22.990Z,10.70
2023-05-06T09:57:50.094Z,9.37
2023-05-06T10:00:17.379Z,8.43
2023-05-06T10:02:46.338Z,8.03
2023-05-06T10:05:14.050Z,7.17
2023-05-06T10:07:44.266Z,7.43
2023-05-06T10:10:14.575Z,8.30
2023-05-06T10:12:42.266Z,10.70
2023-05-06T10:15:09.575Z,11.83
2023-05-06T10:17:39.619Z,10.43
2023-05-06T10:20:09.389Z,8.43
2023-05-06T10:22:55.016Z,9.00
2023-05-06T10:25:21.901Z,8.50
2023-05-06T10:27:50.083Z,8.10
2023-05-06T10:30:17.693Z,9.27
2023-05-06T10:32:45.592Z,9.20
2023-05-06T10:35:17.056Z,9.87
2023-05-06T10:37:45.647Z,8.23
2023-05-06T10:40:12.656Z,9.13
2023-05-06T10:42:39.515Z,7.67
2023-05-06T10:45:06.851Z,7.97
2023-05-06T10:48:00.696Z,8.40
2023-05-06T10:50:28.128Z,9.30
2023-05-06T10:52:55.854Z,7.80
2023-05-06T10:55:27.513Z,9.00
2023-05-06T10:57:56.515Z,9.17
2023-05-06T11:00:23.805Z,16.30
2023-05-06T11:02:54.971Z,18.50
2023-05-06T11:05:22.689Z,10.93
2023-05-06T11:07:53.902Z,9.57
2023-05-06T11:10:38.948Z,8.77
2023-05-06T11:13:18.440Z,8.03
2023-05-06T11:15:46.536Z,9.00
2023-05-06T11:18:25.356Z,9.30
2023-05-06T11:21:02.980Z,9.70
2023-05-06T11:23:54.371Z,9.73
2023-05-06T11:26:21.490Z,11.40
2023-05-06T11:28:49.662Z,18.23
2023-05-06T11:31:16.947Z,15.97
2023-05-06T11:33:47.862Z,21.37
2023-05-06T11:36:15.872Z,20.17
2023-05-06T11:38:43.119Z,14.93
2023-05-06T11:41:10.184Z,12.33
2023-05-06T11:43:37.074Z,12.30
2023-05-06T11:46:04.094Z,13.63
2023-05-06T11:48:30.907Z,16.30
2023-05-06T11:50:58.200Z,15.30
2023-05-06T11:53:25.136Z,13.80
2023-05-06T11:55:53.154Z,14.00
2023-05-06T11:58:21.573Z,14.40
2023-05-06T12:00:51.969Z,10.83
2023-05-06T12:03:22.602Z,11.80
2023-05-06T12:05:50.254Z,11.07
2023-05-06T12:08:26.619Z,10.43
2023-05-06T12:11:05.079Z,16.87
2023-05-06T12:13:32.105Z,15.50
2023-05-06T12:15:59.725Z,11.33
2023-05-06T12:18:27.141Z,29.17
2023-05-06T12:20:54.803Z,25.70
2023-05-06T12:23:22.297Z,16.57
2023-05-06T12:26:08.570Z,10.73
2023-05-06T12:28:36.121Z,10.30
2023-05-06T12:31:21.870Z,10.43
2023-05-06T12:33:50.085Z,10.97
2023-05-06T12:36:17.598Z,10.17
2023-05-06T12:38:57.902Z,9.63
2023-05-06T12:41:25.637Z,9.93
2023-05-06T12:43:55.283Z,10.67
2023-05-06T12:46:22.244Z,11.37
2023-05-06T12:49:02.293Z,11.50
2023-05-06T12:51:31.109Z,11.63
2023-05-06T12:53:58.357Z,10.20
2023-05-06T12:56:25.311Z,11.23
2023-05-06T12:58:59.640Z,12.53
2023-05-06T13:01:26.617Z,11.43
2023-05-06T13:03:54.897Z,10.27
2023-05-06T13:06:21.868Z,25.33
2023-05-06T13:08:48.748Z,49.23
2023-05-06T13:11:15.581Z,22.90
2023-05-06T13:13:42.821Z,18.00
2023-05-06T13:16:10.007Z,17.23
2023-05-06T13:18:36.862Z,12.40
2023-05-06T13:21:04.196Z,10.37
2023-05-06T13:23:31.914Z,10.23
2023-05-06T13:26:04.761Z,12.93
2023-05-06T13:28:33.490Z,12.40
2023-05-06T13:31:00.401Z,10.67
2023-05-06T13:33:27.331Z,9.70
2023-05-06T13:35:54.214Z,8.77
2023-05-06T13:38:21.256Z,7.97
2023-05-06T13:40:51.652Z,8.20
2023-05-06T13:43:19.394Z,10.00
2023-05-06T13:45:46.299Z,8.30
2023-05-06T13:48:13.366Z,9.60
2023-05-06T13:50:43.793Z,8.70
2023-05-06T13:53:10.936Z,8.17
2023-05-06T13:55:37.817Z,8.53
2023-05-06T13:58:06.261Z,10.97
2023-05-06T14:00:33.527Z,10.40
2023-05-06T14:03:00.913Z,12.17
2023-05-06T14:05:27.852Z,12.67
2023-05-06T14:07:54.690Z,9.37
2023-05-06T14:10:21.797Z,8.80
2023-05-06T14:12:48.645Z,9.67
2023-05-06T14:15:15.817Z,9.63
2023-05-06T14:17:43.159Z,11.33
2023-05-06T14:20:10.446Z,10.60
2023-05-06T14:22:37.977Z,10.50
2023-05-06T14:25:05.074Z,11.67
2023-05-06T14:27:31.883Z,11.33
2023-05-06T14:29:58.734Z,12.37
2023-05-06T14:32:25.616Z,13.97
2023-05-06T14:34:52.495Z,12.57
2023-05-06T14:37:19.259Z,11.43
2023-05-06T14:39:46.112Z,10.70
2023-05-06T14:42:13.494Z,12.30
2023-05-06T14:44:40.313Z,14.63
2023-05-06T14:47:07.204Z,17.53
2023-05-06T14:49:33.995Z,16.00
2023-05-06T14:52:01.885Z,13.90
2023-05-06T14:54:29.510Z,13.70
2023-05-06T14:57:01.380Z,13.93
2023-05-06T14:59:28.583Z,17.03
2023-05-06T15:01:59.036Z,16.63
2023-05-06T15:04:25.912Z,14.00
2023-05-06T15:06:52.776Z,15.00
2023-05-06T15:09:19.656Z,13.87
2023-05-06T15:11:46.496Z,17.17
2023-05-06T15:14:13.440Z,15.87
2023-05-06T15:16:40.399Z,14.13
2023-05-06T15:19:07.280Z,16.43
2023-05-06T15:21:34.044Z,14.70
2023-05-06T15:24:01.280Z,15.43
2023-05-06T15:26:28.153Z,14.03
2023-05-06T15:28:55.058Z,21.60
2023-05-06T15:31:21.846Z,16.43
2023-05-06T15:33:49.034Z,14.43
2023-05-06T15:36:15.795Z,14.60
2023-05-06T15:38:51.647Z,15.90
2023-05-06T15:41:18.876Z,16.50
2023-05-06T15:43:45.791Z,17.63
2023-05-06T15:46:12.734Z,18.97
2023-05-06T15:48:39.616Z,18.80
2023-05-06T15:51:06.481Z,17.50
2023-05-06T15:53:33.315Z,17.03
2023-05-06T15:56:13.273Z,14.67
2023-05-06T15:58:44.939Z,13.80
2023-05-06T16:01:11.948Z,15.83
2023-05-06T16:03:41.337Z,15.57
2023-05-06T16:06:08.668Z,22.57
2023-05-06T16:08:36.074Z,106.40
2023-05-06T16:11:02.978Z,96.30
2023-05-06T16:13:29.829Z,64.67
2023-05-06T16:15:56.711Z,40.37
2023-05-06T16:18:23.635Z,33.93
2023-05-06T16:20:50.551Z,30.83
2023-05-06T16:23:17.576Z,47.17
2023-05-06T16:25:44.550Z,23.77
2023-05-06T16:28:11.347Z,19.73
2023-05-06T16:30:38.278Z,16.57
2023-05-06T16:33:05.398Z,16.77
2023-05-06T16:35:32.968Z,18.97
2023-05-06T16:37:59.752Z,16.37
2023-05-06T16:40:27.892Z,17.13
2023-05-06T16:42:55.367Z,18.53
2023-05-06T16:45:22.334Z,19.10
2023-05-06T16:47:49.357Z,16.70
2023-05-06T16:50:16.297Z,15.30
2023-05-06T16:52:43.212Z,16.17
2023-05-06T16:55:10.137Z,17.13
2023-05-06T16:57:37.127Z,16.67
2023-05-06T17:00:08.165Z,17.27
2023-05-06T17:02:35.448Z,19.13
2023-05-06T17:05:02.592Z,18.27
2023-05-06T17:07:29.507Z,17.03
2023-05-06T17:09:56.329Z,17.00
2023-05-06T17:12:24.001Z,15.67
2023-05-06T17:14:50.998Z,17.07
2023-05-06T17:17:19.646Z,15.93
2023-05-06T17:19:47.785Z,16.40
2023-05-06T17:22:14.574Z,16.80
2023-05-06T17:24:41.558Z,16.13
2023-05-06T17:27:08.360Z,16.53
2023-05-06T17:29:35.204Z,17.30
2023-05-06T17:32:02.140Z,17.27
2023-05-06T17:34:28.948Z,15.97
2023-05-06T17:36:56.307Z,15.63
2023-05-06T17:39:23.181Z,15.07
2023-05-06T17:41:49.985Z,16.50
2023-05-06T17:44:18.480Z,15.77
2023-05-06T17:46:48.441Z,14.97
2023-05-06T17:49:15.869Z,16.43
2023-05-06T17:51:45.419Z,15.93
2023-05-06T17:54:12.516Z,16.17
2023-05-06T17:56:39.431Z,16.97
2023-05-06T17:59:06.283Z,16.17
2023-05-06T18:01:33.282Z,15.17
2023-05-06T18:04:00.342Z,16.63
2023-05-06T18:06:27.414Z,16.13
2023-05-06T18:08:54.179Z,15.40
2023-05-06T18:11:21.059Z,16.30
2023-05-06T18:13:47.876Z,16.20
2023-05-06T18:16:14.926Z,16.40
2023-05-06T18:18:42.639Z,19.20
2023-05-06T18:21:09.520Z,18.10
2023-05-06T18:23:36.336Z,20.33
2023-05-06T18:26:06.453Z,18.17
2023-05-06T18:28:36.388Z,16.80
2023-05-06T18:31:03.384Z,16.57
2023-05-06T18:33:30.409Z,15.73
2023-05-06T18:35:57.227Z,15.83
2023-05-06T18:38:26.918Z,17.20
2023-05-06T18:40:54.175Z,17.67
2023-05-06T18:43:21.006Z,16.57
2023-05-06T18:45:47.842Z,17.33
2023-05-06T18:48:14.811Z,15.73
2023-05-06T18:50:41.834Z,14.90
2023-05-06T18:53:08.811Z,14.47
2023-05-06T18:55:35.758Z,12.40
2023-05-06T18:58:05.749Z,12.27
2023-05-06T19:00:32.845Z,17.53
2023-05-06T19:02:59.753Z,15.17
2023-05-06T19:05:26.709Z,15.07
2023-05-06T19:07:53.585Z,12.27
2023-05-06T19:10:20.576Z,15.63
2023-05-06T19:12:47.421Z,11.70
2023-05-06T19:15:14.366Z,12.77
2023-05-06T19:17:41.544Z,11.80
2023-05-06T19:20:08.677Z,9.77
2023-05-06T19:22:35.619Z,10.10
2023-05-06T19:25:02.413Z,10.20
2023-05-06T19:27:29.207Z,10.93
2023-05-06T19:29:56.780Z,11.37
2023-05-06T19:32:23.698Z,10.47
2023-05-06T19:34:50.521Z,9.70
2023-05-06T19:37:17.406Z,9.27
2023-05-06T19:39:44.278Z,8.83
2023-05-06T19:42:11.170Z,9.33
2023-05-06T19:44:38.050Z,9.57
2023-05-06T19:47:04.935Z,9.30
2023-05-06T19:49:32.697Z,9.90
2023-05-06T19:51:59.685Z,9.50
2023-05-06T19:54:27.441Z,10.20
2023-05-06T19:56:54.269Z,8.40
2023-05-06T19:59:21.222Z,8.57
2023-05-06T20:01:48.090Z,9.00
2023-05-06T20:04:15.001Z,8.90
2023-05-06T20:06:42.101Z,9.23
2023-05-06T20:09:10.465Z,9.10
2023-05-06T20:11:37.305Z,8.60
2023-05-06T20:14:04.951Z,8.53
2023-05-06T20:16:31.797Z,8.43
2023-05-06T20:18:59.289Z,9.57
2023-05-06T20:21:26.441Z,7.70
2023-05-06T20:23:53.215Z,7.43
2023-05-06T20:26:20.153Z,7.80
2023-05-06T20:28:47.056Z,8.03
2023-05-06T20:31:13.886Z,7.60
2023-05-06T20:33:40.915Z,8.00
2023-05-06T20:36:07.874Z,7.80
2023-05-06T20:38:34.907Z,8.53
2023-05-06T20:41:03.039Z,8.60
2023-05-06T20:43:30.610Z,9.17
2023-05-06T20:45:57.426Z,8.17
2023-05-06T20:48:24.429Z,6.97
2023-05-06T20:50:54.225Z,6.37
2023-05-06T20:53:21.114Z,7.67
2023-05-06T20:55:48.047Z,7.37
2023-05-06T20:58:15.265Z,6.00
2023-05-06T21:00:42.067Z,6.07
2023-05-06T21:03:09.102Z,6.07
2023-05-06T21:05:36.384Z,5.57
2023-05-06T21:08:03.198Z,5.70
2023-05-06T21:10:30.096Z,6.20
2023-05-06T21:12:57.145Z,4.97
2023-05-06T21:15:24.081Z,5.37
2023-05-06T21:17:50.959Z,5.67
2023-05-06T21:20:19.408Z,5.13
2023-05-06T21:22:46.207Z,5.00
2023-05-06T21:25:13.466Z,4.87
2023-05-06T21:27:40.390Z,5.10
2023-05-06T21:30:07.557Z,4.73
2023-05-06T21:32:34.416Z,4.20
2023-05-06T21:35:01.917Z,4.10
2023-05-06T21:37:28.773Z,4.50
2023-05-06T21:39:55.781Z,4.20
2023-05-06T21:42:22.535Z,4.27
2023-05-06T21:44:49.617Z,4.43
2023-05-06T21:47:16.441Z,4.27
2023-05-06T21:49:43.259Z,4.60
2023-05-06T21:52:10.203Z,4.40
2023-05-06T21:54:36.962Z,4.07
2023-05-06T21:57:08.408Z,4.63
2023-05-06T21:59:35.759Z,4.70
2023-05-06T22:02:03.045Z,4.00
2023-05-06T22:04:30.165Z,4.47
2023-05-06T22:06:57.144Z,4.27
2023-05-06T22:09:24.023Z,4.37
2023-05-06T22:11:50.868Z,4.50
2023-05-06T22:14:19.855Z,4.10
2023-05-06T22:16:49.016Z,3.90
2023-05-06T22:19:15.929Z,3.73
2023-05-06T22:21:42.783Z,4.43
2023-05-06T22:24:09.600Z,3.90
2023-05-06T22:26:36.587Z,4.83
2023-05-06T22:29:03.506Z,3.37
2023-05-06T22:31:30.449Z,3.63
2023-05-06T22:33:58.333Z,3.67
2023-05-06T22:36:29.742Z,3.93
2023-05-06T22:38:56.679Z,3.37
2023-05-06T22:41:23.564Z,4.10
2023-05-06T22:43:50.450Z,3.70
2023-05-06T22:46:17.383Z,3.80
2023-05-06T22:48:47.179Z,3.30
2023-05-06T22:51:17.231Z,3.27
2023-05-06T22:53:44.124Z,3.80
2023-05-06T22:56:11.371Z,3.10
2023-05-06T22:58:38.350Z,2.83
2023-05-06T23:01:05.330Z,2.90
2023-05-06T23:03:32.373Z,3.23
2023-05-06T23:05:59.186Z,3.07
2023-05-06T23:08:26.100Z,2.60
2023-05-06T23:10:52.872Z,3.40
2023-05-06T23:13:19.735Z,2.90
2023-05-06T23:15:46.592Z,3.07
2023-05-06T23:18:13.479Z,3.50
2023-05-06T23:20:40.646Z,3.23
2023-05-06T23:23:10.780Z,2.50
2023-05-06T23:25:37.839Z,2.63
2023-05-06T23:28:04.804Z,2.60
2023-05-06T23:30:31.670Z,2.80
2023-05-06T23:32:58.606Z,2.43
2023-05-06T23:35:26.148Z,2.87
2023-05-06T23:37:53.084Z,3.07
2023-05-06T23:40:19.975Z,2.83
2023-05-06T23:42:46.786Z,2.87
2023-05-06T23:45:13.698Z,2.80
2023-05-06T23:47:40.581Z,2.50
2023-05-06T23:50:07.763Z,2.63
2023-05-06T23:52:34.818Z,2.47
2023-05-06T23:55:01.696Z,2.40
2023-05-06T23:57:28.451Z,2.30
2023-05-06T23:59:55.392Z,2.47
